Time;durP1;ratioP1;P1;durP2;ratioP2;P2;SDS_P1;SDS_P2;PMS_P1;PMS_P2;Temp;Humidity;BMP_temperature;BMP_pressure;BME280_temperature;BME280_humidity;BME280_pressure;Samples;Min_cycle;Max_cycle;Signal;HPM_P1;HPM_P2
2022/07/10 00:02:09;;;;;;;808.37;748.60;;;18.20;19.70;;;;;;5035488;28;20186;-69
2022/07/10 00:04:34;;;;;;;595.33;563.20;;;18.10;19.90;;;;;;5035408;28;20186;-70
2022/07/10 00:07:01;;;;;;;496.60;473.73;;;18.10;19.80;;;;;;5035431;28;20186;-68
2022/07/10 00:09:28;;;;;;;818.37;759.93;;;18.00;20.10;;;;;;5034700;28;20195;-68
2022/07/10 00:11:53;;;;;;;792.37;738.33;;;17.90;20.80;;;;;;5035154;28;20963;-68
2022/07/10 00:14:20;;;;;;;504.73;482.23;;;18.00;20.40;;;;;;5035177;28;20421;-68
2022/07/10 00:16:45;;;;;;;496.57;474.33;;;17.90;20.80;;;;;;5034961;28;20297;-69
2022/07/10 00:19:11;;;;;;;467.70;446.93;;;17.70;21.20;;;;;;5034594;28;20939;-68
2022/07/10 00:21:37;;;;;;;457.03;436.20;;;17.60;21.70;;;;;;5035087;28;20186;-67
2022/07/10 00:24:02;;;;;;;660.23;623.00;;;17.70;21.60;;;;;;5033700;28;20434;-68
2022/07/10 00:26:28;;;;;;;986.70;915.23;;;17.60;21.60;;;;;;5035093;28;20187;-67
2022/07/10 00:28:54;;;;;;;496.77;475.10;;;17.70;21.70;;;;;;5034345;28;20257;-68
2022/07/10 00:31:20;;;;;;;603.40;564.20;;;17.70;21.30;;;;;;5034798;28;20179;-68
2022/07/10 00:33:46;;;;;;;451.50;432.57;;;17.80;21.40;;;;;;5034692;28;20418;-68
2022/07/10 00:36:11;;;;;;;666.37;627.83;;;17.70;21.70;;;;;;5034544;28;20215;-69
2022/07/10 00:38:37;;;;;;;642.77;606.13;;;17.70;21.40;;;;;;5034263;28;20223;-68
2022/07/10 00:41:02;;;;;;;778.43;730.67;;;17.70;21.50;;;;;;5034607;28;20183;-68
2022/07/10 00:43:28;;;;;;;431.70;411.70;;;17.80;21.50;;;;;;5034840;28;20183;-69
2022/07/10 00:45:54;;;;;;;784.10;733.33;;;17.80;21.30;;;;;;5034787;28;20282;-69
2022/07/10 00:48:19;;;;;;;740.70;692.70;;;18.00;20.90;;;;;;5033666;28;20214;-68
2022/07/10 00:50:46;;;;;;;686.20;640.93;;;18.00;21.20;;;;;;5034382;28;20184;-68
2022/07/10 00:53:13;;;;;;;613.23;574.57;;;18.00;20.50;;;;;;5034299;28;20275;-68
2022/07/10 00:55:39;;;;;;;743.40;699.37;;;17.90;20.60;;;;;;5034414;28;20425;-69
2022/07/10 00:58:07;;;;;;;889.87;829.10;;;18.00;20.20;;;;;;5032923;28;20472;-69
2022/07/10 01:00:35;;;;;;;737.50;690.07;;;18.10;19.90;;;;;;5034212;28;20441;-69
2022/07/10 01:03:00;;;;;;;387.53;369.07;;;18.20;19.70;;;;;;5034215;28;20422;-69
2022/07/10 01:05:26;;;;;;;779.17;733.23;;;17.90;20.50;;;;;;5034368;28;20444;-68
2022/07/10 01:07:51;;;;;;;879.00;821.57;;;17.90;20.70;;;;;;5034400;28;20187;-68
2022/07/10 01:10:17;;;;;;;703.23;661.53;;;18.00;20.50;;;;;;5033801;28;20199;-69
2022/07/10 01:12:43;;;;;;;943.33;875.10;;;18.10;20.20;;;;;;5034119;28;20270;-70
2022/07/10 01:15:10;;;;;;;805.83;754.47;;;;;;;;;;5033982;28;20198;-69
2022/07/10 01:17:36;;;;;;;758.10;711.80;;;18.20;19.20;;;;;;5033819;28;20469;-68
2022/07/10 01:20:09;;;;;;;831.90;776.37;;;18.30;19.80;;;;;;5033470;28;20449;-68
2022/07/10 01:22:36;;;;;;;407.63;386.03;;;18.20;19.70;;;;;;5033832;28;20233;-70
2022/07/10 01:25:02;;;;;;;609.73;576.83;;;18.00;20.00;;;;;;5033675;28;20903;-68
2022/07/10 01:27:28;;;;;;;976.47;902.00;;;17.60;21.50;;;;;;5033848;28;20421;-68
2022/07/10 01:29:54;;;;;;;840.57;781.80;;;17.60;21.80;;;;;;5033310;28;20496;-69
2022/07/10 01:32:19;;;;;;;532.10;506.20;;;17.70;21.50;;;;;;5033665;28;20180;-70
2022/07/10 01:34:46;;;;;;;953.37;883.47;;;17.60;21.20;;;;;;5033614;28;20418;-69
2022/07/10 01:37:12;;;;;;;1007.63;931.53;;;17.60;21.90;;;;;;5033658;28;20569;-69
2022/07/10 01:39:38;;;;;;;823.13;769.07;;;17.50;22.00;;;;;;5031684;28;20442;-69
2022/07/10 01:42:04;;;;;;;793.27;740.13;;;17.60;21.80;;;;;;5033607;28;20190;-69
2022/07/10 01:44:29;;;;;;;751.43;704.47;;;17.50;21.70;;;;;;5033457;28;20259;-68
2022/07/10 01:46:55;;;;;;;1158.93;999.90;;;17.60;21.90;;;;;;5033432;28;20414;-70
2022/07/10 01:49:20;;;;;;;1008.30;930.23;;;17.50;22.00;;;;;;5032860;28;20234;-68
2022/07/10 01:51:46;;;;;;;696.10;655.60;;;17.50;22.30;;;;;;5033341;28;20543;-69
2022/07/10 01:54:11;;;;;;;450.33;425.43;;;17.40;22.50;;;;;;5033195;28;20217;-68
2022/07/10 01:56:38;;;;;;;1148.50;999.90;;;17.20;23.30;;;;;;5033173;28;20199;-68
2022/07/10 01:59:04;;;;;;;1071.70;988.47;;;17.30;23.00;;;;;;5032739;28;20187;-70
2022/07/10 02:01:30;;;;;;;797.97;745.47;;;17.30;22.40;;;;;;5032408;28;20418;-68
2022/07/10 02:06:40;;;;;;;464.77;443.37;;;17.30;23.00;;;;;;5033144;28;20461;-68
2022/07/10 02:09:05;;;;;;;684.57;644.37;;;17.20;22.30;;;;;;5031390;28;20861;-68
2022/07/10 02:11:31;;;;;;;707.90;665.57;;;17.10;23.30;;;;;;5033096;28;20254;-69
2022/07/10 02:13:56;;;;;;;574.97;537.30;;;17.00;23.20;;;;;;5034120;28;20197;-69
2022/07/10 02:16:22;;;;;;;777.70;724.90;;;17.00;23.20;;;;;;5033698;28;20260;-70
2022/07/10 02:18:47;;;;;;;723.97;676.87;;;17.00;23.40;;;;;;5033861;28;20234;-68
2022/07/10 02:21:13;;;;;;;712.17;669.80;;;17.00;23.20;;;;;;5034336;28;20283;-68
2022/07/10 02:23:40;;;;;;;777.93;731.03;;;16.80;23.40;;;;;;5033574;28;20179;-69
2022/07/10 02:26:06;;;;;;;553.47;527.73;;;;;;;;;;5033247;28;20207;-70
2022/07/10 02:28:32;;;;;;;907.50;846.07;;;16.60;23.90;;;;;;5032797;28;20436;-68
2022/07/10 02:30:58;;;;;;;918.40;854.77;;;16.50;24.70;;;;;;5033028;28;20420;-68
2022/07/10 02:33:24;;;;;;;864.70;806.37;;;16.50;24.90;;;;;;5032903;28;20186;-67
2022/07/10 02:35:50;;;;;;;656.20;614.47;;;16.50;25.10;;;;;;5032751;28;20412;-67
2022/07/10 02:38:15;;;;;;;797.20;746.47;;;16.40;24.90;;;;;;5032062;28;20548;-67
2022/07/10 02:40:41;;;;;;;932.83;865.13;;;16.40;25.10;;;;;;5033340;28;20537;-68
2022/07/10 02:43:07;;;;;;;985.57;914.23;;;16.30;25.40;;;;;;5034089;28;20663;-67
2022/07/10 02:45:32;;;;;;;703.63;660.60;;;16.30;25.30;;;;;;5033816;28;20254;-67
2022/07/10 02:47:58;;;;;;;884.13;820.13;;;16.20;25.10;;;;;;5033362;28;20190;-67
2022/07/10 02:50:23;;;;;;;761.20;708.83;;;16.10;26.20;;;;;;5033637;28;20202;-67
2022/07/10 02:52:49;;;;;;;820.63;764.10;;;16.10;26.80;;;;;;5032282;28;20201;-68
2022/07/10 02:55:14;;;;;;;1039.30;960.20;;;15.90;26.60;;;;;;5032302;28;20679;-67
2022/07/10 02:57:40;;;;;;;746.03;696.87;;;16.00;26.70;;;;;;5032345;28;20218;-67
2022/07/10 03:00:06;;;;;;;824.53;770.00;;;16.00;26.70;;;;;;5031418;28;20233;-67
2022/07/10 03:02:32;;;;;;;1005.10;927.60;;;16.00;26.70;;;;;;5032724;28;20657;-68
2022/07/10 03:04:57;;;;;;;896.60;831.97;;;15.90;27.10;;;;;;5032448;28;20484;-68
2022/07/10 03:07:23;;;;;;;608.87;574.63;;;15.90;26.90;;;;;;5032320;28;20186;-67
2022/07/10 03:09:49;;;;;;;1005.97;929.87;;;15.90;26.80;;;;;;5031175;28;20211;-67
2022/07/10 03:12:14;;;;;;;645.33;606.90;;;16.00;26.70;;;;;;5032339;28;20205;-68
2022/07/10 03:14:40;;;;;;;640.97;606.90;;;16.00;26.70;;;;;;5033275;28;20419;-67
2022/07/10 03:17:05;;;;;;;732.53;684.20;;;16.10;26.50;;;;;;5033223;28;20209;-68
2022/07/10 03:19:33;;;;;;;925.60;854.83;;;16.10;27.00;;;;;;5033022;28;20213;-67
2022/07/10 03:21:58;;;;;;;1039.83;964.83;;;16.20;26.30;;;;;;5032104;28;20186;-68
2022/07/10 03:24:24;;;;;;;684.67;646.43;;;16.30;26.00;;;;;;5035826;28;20421;-68
2022/07/10 03:26:49;;;;;;;684.93;642.50;;;16.40;25.60;;;;;;5043577;28;20185;-70
2022/07/10 03:29:15;;;;;;;541.27;515.57;;;16.30;25.70;;;;;;5041203;28;20218;-68
2022/07/10 03:31:41;;;;;;;825.93;767.80;;;16.20;26.50;;;;;;5031811;28;20181;-67
2022/07/10 03:34:07;;;;;;;941.37;873.53;;;16.30;26.00;;;;;;5031782;28;20182;-67
2022/07/10 03:36:32;;;;;;;704.77;661.10;;;16.30;26.10;;;;;;5031599;28;20206;-67
2022/07/10 03:38:58;;;;;;;976.77;903.57;;;16.40;25.90;;;;;;5031167;28;20194;-69
2022/07/10 03:41:23;;;;;;;1002.90;929.57;;;16.40;26.30;;;;;;5031650;28;20183;-68
2022/07/10 03:43:49;;;;;;;851.10;792.33;;;16.40;26.30;;;;;;5030630;28;20581;-66
2022/07/10 03:46:14;;;;;;;478.23;456.83;;;16.40;26.30;;;;;;5031598;28;20186;-67
2022/07/10 03:48:40;;;;;;;481.03;459.13;;;16.40;26.90;;;;;;5031230;28;20230;-67
2022/07/10 03:51:05;;;;;;;499.30;474.83;;;16.20;26.80;;;;;;5029486;28;20210;-67
2022/07/10 03:53:31;;;;;;;984.53;911.33;;;16.20;26.80;;;;;;5031568;28;20179;-67
2022/07/10 03:55:56;;;;;;;805.73;744.97;;;16.30;26.90;;;;;;5031420;28;20261;-67
2022/07/10 03:58:22;;;;;;;709.00;666.50;;;16.30;26.90;;;;;;5029846;28;20187;-67
2022/07/10 04:00:47;;;;;;;948.93;881.37;;;16.50;26.80;;;;;;5031502;28;20182;-67
2022/07/10 04:03:13;;;;;;;672.37;632.20;;;16.40;27.00;;;;;;5030226;28;20226;-67
2022/07/10 04:05:39;;;;;;;812.20;757.33;;;16.40;27.00;;;;;;5031444;28;20174;-67
2022/07/10 04:08:05;;;;;;;527.17;499.80;;;16.40;27.00;;;;;;5031119;28;20614;-67
2022/07/10 04:10:33;;;;;;;970.03;898.20;;;16.40;27.00;;;;;;5031296;28;21026;-67
2022/07/10 04:13:00;;;;;;;590.50;555.57;;;16.40;27.90;;;;;;5031377;28;20186;-66
2022/07/10 04:15:26;;;;;;;912.63;845.73;;;16.40;27.90;;;;;;5031317;28;20424;-69
2022/07/10 04:17:52;;;;;;;676.00;634.80;;;16.50;28.90;;;;;;5031139;28;20484;-69
2022/07/10 04:20:18;;;;;;;634.20;594.47;;;16.80;31.60;;;;;;5030893;28;20446;-69
2022/07/10 04:22:44;;;;;;;635.53;598.67;;;16.50;28.90;;;;;;5031354;28;20479;-68
2022/07/10 04:25:10;;;;;;;812.73;755.60;;;16.40;28.80;;;;;;5033991;28;20421;-67
2022/07/10 04:27:36;;;;;;;679.23;638.33;;;16.50;28.50;;;;;;5034867;28;20899;-68
2022/07/10 04:30:02;;;;;;;744.87;693.33;;;;;;;;;;5034423;28;20483;-68
2022/07/10 04:32:28;;;;;;;745.60;692.27;;;16.70;26.70;;;;;;5035055;28;20241;-68
2022/07/10 04:34:54;;;;;;;931.00;857.03;;;16.70;32.40;;;;;;5034777;28;20880;-68
2022/07/10 04:37:20;;;;;;;564.93;535.87;;;16.70;27.20;;;;;;5034591;28;20207;-68
2022/07/10 04:39:46;;;;;;;703.47;655.67;;;16.80;27.30;;;;;;5033019;28;20476;-68
2022/07/10 04:42:11;;;;;;;551.00;524.37;;;;;;;;;;5034691;28;20672;-68
2022/07/10 04:44:37;;;;;;;635.90;597.07;;;16.80;26.20;;;;;;5034633;28;20179;-68
2022/07/10 04:47:04;;;;;;;647.57;605.57;;;16.80;26.50;;;;;;5034625;28;20449;-68
2022/07/10 04:49:30;;;;;;;623.47;580.77;;;16.80;26.90;;;;;;5033957;28;20438;-68
2022/07/10 04:51:58;;;;;;;641.67;598.83;;;16.60;27.10;;;;;;5034945;28;20421;-68
2022/07/10 04:54:24;;;;;;;972.57;893.90;;;16.80;26.60;;;;;;5034486;28;20190;-68
2022/07/10 04:56:49;;;;;;;735.07;680.70;;;16.90;27.00;;;;;;5034162;28;20465;-68
2022/07/10 04:59:15;;;;;;;886.20;820.30;;;16.80;26.90;;;;;;5032716;28;20282;-68
2022/07/10 05:01:41;;;;;;;583.47;550.23;;;17.00;26.50;;;;;;5034287;28;20549;-68
2022/07/10 05:04:06;;;;;;;624.50;587.63;;;17.10;25.30;;;;;;5034546;28;20182;-68
2022/07/10 05:06:32;;;;;;;965.67;892.20;;;17.10;25.30;;;;;;5034106;28;20191;-68
2022/07/10 05:08:58;;;;;;;991.87;912.63;;;17.30;25.60;;;;;;5033677;28;20199;-68
2022/07/10 05:11:25;;;;;;;721.03;673.40;;;17.30;24.80;;;;;;5033924;28;20602;-68
2022/07/10 05:13:51;;;;;;;677.67;637.53;;;17.40;24.60;;;;;;5034081;28;20487;-68
2022/07/10 05:16:18;;;;;;;1032.53;946.87;;;17.60;23.60;;;;;;5033885;28;20446;-68
2022/07/10 05:18:44;;;;;;;957.87;883.50;;;17.60;23.60;;;;;;5033473;28;20203;-68
2022/07/10 05:21:10;;;;;;;818.70;760.43;;;17.70;23.60;;;;;;5033807;28;20406;-68
2022/07/10 05:23:36;;;;;;;767.40;714.80;;;17.50;23.50;;;;;;5033836;28;20418;-68
2022/07/10 05:26:02;;;;;;;699.87;650.37;;;17.60;23.60;;;;;;5033747;28;20444;-68
2022/07/10 05:28:28;;;;;;;584.03;552.57;;;17.40;23.40;;;;;;5033286;28;20446;-68
2022/07/10 05:30:53;;;;;;;850.70;789.10;;;17.10;24.30;;;;;;5033829;28;20175;-68
2022/07/10 05:33:19;;;;;;;763.73;708.30;;;17.20;24.30;;;;;;5033824;28;20179;-68
2022/07/10 05:35:45;;;;;;;564.17;527.20;;;17.10;24.40;;;;;;5032293;28;20240;-68
2022/07/10 05:38:10;;;;;;;735.90;688.10;;;16.70;25.30;;;;;;5033388;28;20868;-67
2022/07/10 05:40:36;;;;;;;577.90;546.40;;;16.80;25.60;;;;;;5033500;28;20214;-69
2022/07/10 05:43:01;;;;;;;953.50;877.60;;;16.70;25.80;;;;;;5033664;28;20547;-67
2022/07/10 05:45:27;;;;;;;835.57;777.27;;;16.90;25.50;;;;;;5033419;28;20550;-69
2022/07/10 05:47:53;;;;;;;807.60;744.53;;;17.10;25.40;;;;;;5033378;28;20446;-69
2022/07/10 05:50:19;;;;;;;684.67;638.87;;;16.20;26.90;;;;;;5032889;28;20802;-68
2022/07/10 05:52:44;;;;;;;915.23;846.77;;;16.00;27.60;;;;;;5033439;28;20209;-68
2022/07/10 05:55:10;;;;;;;607.07;572.43;;;16.20;27.80;;;;;;5033216;28;20189;-68
2022/07/10 05:57:36;;;;;;;688.37;640.97;;;16.10;27.10;;;;;;5033105;28;20317;-68
2022/07/10 06:00:03;;;;;;;988.87;915.00;;;16.00;27.00;;;;;;5032893;28;20857;-68
2022/07/10 06:02:29;;;;;;;760.67;708.63;;;16.10;26.80;;;;;;5033113;28;20452;-68
2022/07/10 06:04:55;;;;;;;867.33;804.67;;;16.30;26.60;;;;;;5033001;28;20907;-68
2022/07/10 06:07:21;;;;;;;869.10;804.10;;;16.40;27.00;;;;;;5033099;28;20610;-68
2022/07/10 06:09:46;;;;;;;598.13;562.20;;;16.70;26.20;;;;;;5032478;28;20434;-68
2022/07/10 06:12:12;;;;;;;624.57;586.00;;;16.70;25.40;;;;;;5032966;28;20209;-69
2022/07/10 06:14:37;;;;;;;740.87;693.33;;;16.70;25.50;;;;;;5032899;28;20676;-68
2022/07/10 06:17:03;;;;;;;838.90;780.20;;;16.90;24.10;;;;;;5032714;28;20211;-68
2022/07/10 06:19:29;;;;;;;658.13;619.73;;;16.90;23.30;;;;;;5032212;28;20191;-68
2022/07/10 06:24:39;;;;;;;574.10;541.20;;;16.60;23.60;;;;;;5032737;28;20182;-68
2022/07/10 06:27:04;;;;;;;755.90;704.90;;;16.80;23.00;;;;;;5032684;28;20406;-68
2022/07/10 06:29:30;;;;;;;868.97;806.47;;;16.90;21.50;;;;;;5032218;28;20720;-68
2022/07/10 06:31:56;;;;;;;837.70;780.73;;;16.90;20.50;;;;;;5032479;28;20671;-68
2022/07/10 06:34:21;;;;;;;731.97;679.00;;;17.00;20.90;;;;;;5032493;28;20190;-69
2022/07/10 06:36:47;;;;;;;861.83;800.53;;;17.00;21.00;;;;;;5031108;28;20219;-68
2022/07/10 06:39:12;;;;;;;679.50;636.83;;;17.00;21.20;;;;;;5031957;28;20194;-68
2022/07/10 06:41:38;;;;;;;831.53;771.13;;;16.70;20.90;;;;;;5032421;28;20636;-68
2022/07/10 06:44:04;;;;;;;573.30;540.30;;;16.60;21.20;;;;;;5032353;28;20247;-68
2022/07/10 06:46:30;;;;;;;456.47;432.93;;;16.60;20.90;;;;;;5031811;28;20414;-68
2022/07/10 06:48:55;;;;;;;882.03;818.53;;;16.60;21.40;;;;;;5031775;28;20191;-68
2022/07/10 06:51:21;;;;;;;545.30;515.70;;;16.30;22.40;;;;;;5032230;28;20182;-68
2022/07/10 06:53:47;;;;;;;612.13;576.73;;;16.40;22.50;;;;;;5032117;28;20236;-68
2022/07/10 06:56:15;;;;;;;689.73;647.67;;;16.90;21.20;;;;;;5032250;28;20178;-68
2022/07/10 06:58:40;;;;;;;821.50;765.60;;;17.80;18.10;;;;;;5031782;28;20244;-68
2022/07/10 07:01:06;;;;;;;850.50;788.97;;;18.20;15.30;;;;;;5030501;28;20434;-68
2022/07/10 07:03:32;;;;;;;746.83;701.97;;;;;;;;;;5031866;28;20187;-68
2022/07/10 07:05:58;;;;;;;897.43;827.80;;;18.40;14.50;;;;;;5032322;28;20198;-68
2022/07/10 07:08:23;;;;;;;669.87;629.37;;;18.70;14.40;;;;;;5027327;28;20854;-68
2022/07/10 07:10:49;;;;;;;755.13;708.40;;;18.80;14.00;;;;;;5036564;28;20182;-68
2022/07/10 07:13:14;;;;;;;576.00;539.20;;;19.10;13.60;;;;;;5051217;28;20210;-68
2022/07/10 07:15:46;;;;;;;737.50;690.10;;;;;;;;;;5050216;28;20261;-69
2022/07/10 07:18:15;;;;;;;824.37;759.83;;;;;;;;;;5050186;28;20206;-68
2022/07/10 07:23:26;;;;;;;753.93;707.67;;;17.30;15.80;;;;;;5038525;28;20429;-69
2022/07/10 07:25:52;;;;;;;640.27;601.63;;;17.50;14.80;;;;;;5049450;28;20421;-68
2022/07/10 07:28:19;;;;;;;851.40;793.90;;;17.70;14.50;;;;;;5044592;28;20839;-69
2022/07/10 07:30:46;;;;;;;691.47;647.17;;;18.00;13.80;;;;;;5041633;28;20194;-69
2022/07/10 07:33:12;;;;;;;607.83;574.50;;;17.60;14.90;;;;;;5034812;28;20507;-68
2022/07/10 07:35:38;;;;;;;556.37;526.27;;;18.20;14.40;;;;;;5031145;28;20453;-69
2022/07/10 07:38:05;;;;;;;790.03;737.63;;;18.20;13.80;;;;;;5032098;28;20203;-68
2022/07/10 07:40:31;;;;;;;696.37;651.80;;;18.00;13.60;;;;;;5043840;28;20494;-68
2022/07/10 07:42:57;;;;;;;649.97;612.13;;;18.00;13.60;;;;;;5051775;28;20483;-69
2022/07/10 07:45:23;;;;;;;629.63;595.43;;;18.30;13.60;;;;;;5048554;28;20400;-69
2022/07/10 07:47:51;;;;;;;685.33;641.87;;;18.50;13.20;;;;;;5039393;28;20423;-67
2022/07/10 07:50:23;;;;;;;773.30;718.27;;;18.90;13.00;;;;;;5047191;28;20429;-69
2022/07/10 07:52:49;;;;;;;684.03;640.80;;;;;;;;;;5047134;28;20437;-70
2022/07/10 07:55:17;;;;;;;947.57;873.73;;;19.80;10.00;;;;;;5043188;28;20445;-68
2022/07/10 07:57:43;;;;;;;793.87;741.07;;;19.70;10.50;;;;;;5041243;28;21171;-69
2022/07/10 08:00:10;;;;;;;843.73;778.27;;;18.60;12.60;;;;;;5047224;28;20434;-69
2022/07/10 08:02:36;;;;;;;679.40;638.53;;;18.30;13.10;;;;;;5029745;28;20474;-69
2022/07/10 08:05:04;;;;;;;771.93;720.40;;;18.50;14.20;;;;;;5031117;28;20452;-70
2022/07/10 08:07:47;;;;;;;727.63;681.37;;;18.20;13.80;;;;;;5029760;28;20262;-70
2022/07/10 08:10:15;;;;;;;801.63;745.07;;;18.20;12.50;;;;;;5032871;28;20460;-69
2022/07/10 08:12:41;;;;;;;662.53;622.83;;;17.00;14.50;;;;;;5051044;28;20424;-69
2022/07/10 08:15:09;;;;;;;718.97;672.43;;;17.80;14.00;;;;;;5050611;28;20516;-70
2022/07/10 08:17:34;;;;;;;890.90;828.17;;;18.40;13.10;;;;;;5049853;28;20601;-70
2022/07/10 08:20:01;;;;;;;867.87;805.40;;;19.30;11.60;;;;;;5049983;28;20516;-69
2022/07/10 08:22:27;;;;;;;949.37;868.27;;;19.80;10.40;;;;;;5044730;28;20183;-70
2022/07/10 08:24:52;;;;;;;833.37;773.90;;;19.40;10.30;;;;;;5031588;28;20788;-69
2022/07/10 08:27:18;;;;;;;877.23;805.67;;;18.30;12.30;;;;;;5031183;28;20660;-70
2022/07/10 08:29:43;;;;;;;738.07;688.57;;;18.20;12.10;;;;;;5030819;28;20279;-69
2022/07/10 08:32:12;;;;;;;872.30;802.07;;;18.70;13.50;;;;;;5031290;28;20175;-70
2022/07/10 08:34:37;;;;;;;689.97;650.37;;;18.90;10.40;;;;;;5030910;28;20180;-69
2022/07/10 08:37:03;;;;;;;719.23;671.47;;;19.20;10.60;;;;;;5031709;28;20476;-69
2022/07/10 08:39:29;;;;;;;821.50;762.80;;;19.70;9.50;;;;;;5049760;28;20207;-69
2022/07/10 08:41:54;;;;;;;808.27;751.60;;;19.80;9.20;;;;;;5050561;28;20182;-69
2022/07/10 08:44:21;;;;;;;741.37;691.23;;;18.90;10.60;;;;;;5050708;28;20189;-66
2022/07/10 08:46:47;;;;;;;827.80;766.50;;;19.40;9.30;;;;;;5033488;28;20219;-67
2022/07/10 08:49:15;;;;;;;862.03;797.07;;;19.50;8.80;;;;;;5029491;28;20484;-69
2022/07/10 08:52:01;;;;;;;781.90;725.17;;;19.60;9.20;;;;;;5049236;28;20698;-68
2022/07/10 08:54:31;;;;;;;866.53;801.73;;;20.20;8.70;;;;;;5048397;28;20990;-67
2022/07/10 08:56:58;;;;;;;851.87;782.53;;;20.70;8.10;;;;;;5032433;28;20481;-67
2022/07/10 08:59:24;;;;;;;842.73;780.33;;;20.60;6.70;;;;;;5028869;28;20438;-68
2022/07/10 09:01:49;;;;;;;823.97;760.23;;;21.00;7.30;;;;;;5031058;28;20417;-68
2022/07/10 09:04:18;;;;;;;747.93;695.13;;;21.40;6.40;;;;;;5049907;28;20456;-68
2022/07/10 09:06:44;;;;;;;951.23;863.60;;;21.60;5.60;;;;;;5043369;28;20195;-67
2022/07/10 09:09:11;;;;;;;824.97;756.80;;;;;;;;;;5041524;28;20455;-68
2022/07/10 09:11:40;;;;;;;807.33;747.27;;;21.60;3.60;;;;;;5049163;28;20437;-67
2022/07/10 09:14:11;;;;;;;883.30;813.70;;;19.40;8.70;;;;;;5040511;28;20421;-67
2022/07/10 09:16:39;;;;;;;779.07;726.43;;;19.20;9.60;;;;;;5048853;28;20500;-67
2022/07/10 09:19:27;;;;;;;797.53;741.97;;;19.30;10.10;;;;;;5048008;28;20449;-67
2022/07/10 09:22:05;;;;;;;847.17;782.83;;;19.60;9.80;;;;;;5050058;28;20580;-67
2022/07/10 09:24:45;;;;;;;741.90;685.20;;;20.20;9.00;;;;;;5046084;28;20444;-67
2022/07/10 09:27:15;;;;;;;781.03;729.77;;;19.80;7.00;;;;;;5040578;28;20434;-67
2022/07/10 09:29:48;;;;;;;939.20;864.23;;;19.60;7.80;;;;;;5029073;28;20607;-67
2022/07/10 09:32:16;;;;;;;856.63;793.10;;;19.90;8.00;;;;;;5043296;28;20436;-67
2022/07/10 09:34:44;;;;;;;840.73;773.67;;;19.70;7.30;;;;;;5049345;28;20888;-67
2022/07/10 09:37:18;;;;;;;807.53;748.97;;;19.60;7.90;;;;;;5049653;28;20465;-67
2022/07/10 09:39:54;;;;;;;752.73;702.80;;;20.20;7.30;;;;;;5048694;28;20428;-68
2022/07/10 09:42:31;;;;;;;942.27;863.37;;;20.40;7.20;;;;;;5049735;28;20401;-67
2022/07/10 09:45:12;;;;;;;851.67;780.23;;;20.10;7.20;;;;;;5048899;28;20413;-68
2022/07/10 09:47:46;;;;;;;880.03;807.33;;;20.10;7.20;;;;;;5049349;28;20421;-68
2022/07/10 09:50:27;;;;;;;988.63;897.17;;;20.10;6.60;;;;;;5051504;28;20432;-68
2022/07/10 09:52:56;;;;;;;818.53;754.67;;;19.50;6.90;;;;;;5052454;28;20963;-68
2022/07/10 09:55:26;;;;;;;872.20;798.77;;;19.20;6.00;;;;;;5045566;28;20468;-69
2022/07/10 09:57:55;;;;;;;944.33;862.77;;;19.20;6.70;;;;;;5032727;28;20472;-68
2022/07/10 10:00:25;;;;;;;920.90;840.20;;;19.20;7.00;;;;;;5046790;28;20450;-68
2022/07/10 10:02:58;;;;;;;744.13;688.90;;;19.20;6.40;;;;;;5037077;28;20856;-68
2022/07/10 10:05:31;;;;;;;877.70;804.30;;;19.20;6.50;;;;;;5032887;28;20996;-68
2022/07/10 10:08:01;;;;;;;919.57;842.40;;;19.90;6.30;;;;;;5032220;28;20793;-68
2022/07/10 10:10:27;;;;;;;854.33;780.87;;;20.50;4.90;;;;;;5032796;28;20927;-68
2022/07/10 10:12:58;;;;;;;856.10;782.43;;;21.00;4.50;;;;;;5039689;28;20788;-68
2022/07/10 10:15:25;;;;;;;999.37;891.83;;;21.20;1.90;;;;;;5036994;28;20418;-69
2022/07/10 10:17:52;;;;;;;894.10;806.27;;;20.70;3.30;;;;;;5034884;28;20461;-68
2022/07/10 10:20:39;;;;;;;780.67;716.87;;;21.10;3.40;;;;;;5052357;28;20457;-68
2022/07/10 10:23:05;;;;;;;906.87;828.20;;;21.20;3.10;;;;;;5051827;28;20409;-68
2022/07/10 10:25:34;;;;;;;982.27;885.17;;;20.90;5.80;;;;;;5053107;28;20914;-68
2022/07/10 10:28:03;;;;;;;839.17;767.33;;;21.20;5.50;;;;;;5058555;28;20173;-68
2022/07/10 10:30:30;;;;;;;1223.17;971.50;;;;;;;;;;5058280;28;20433;-68
2022/07/10 10:32:55;;;;;;;787.17;718.07;;;20.90;1.60;;;;;;5054334;28;20449;-68
2022/07/10 10:35:48;;;;;;;1027.90;928.57;;;20.10;3.00;;;;;;5051738;28;20470;-68
2022/07/10 10:38:17;;;;;;;599.67;545.50;;;20.30;4.00;;;;;;5032361;28;20595;-68
2022/07/10 10:40:43;;;;;;;899.33;813.80;;;19.90;4.30;;;;;;5034751;28;20437;-68
2022/07/10 10:43:23;;;;;;;772.13;705.13;;;20.30;3.50;;;;;;5033361;28;20891;-68
2022/07/10 10:45:54;;;;;;;890.50;812.63;;;20.20;3.10;;;;;;5041706;28;20213;-68
2022/07/10 10:48:23;;;;;;;786.93;721.17;;;20.50;3.00;;;;;;5052572;28;20428;-68
2022/07/10 10:50:50;;;;;;;859.00;783.17;;;20.90;2.20;;;;;;5052522;28;20759;-68
2022/07/10 10:53:15;;;;;;;815.23;739.37;;;20.80;1.40;;;;;;5052240;28;20424;-68
2022/07/10 10:56:01;;;;;;;755.50;689.40;;;20.40;2.30;;;;;;5044982;28;20414;-68
2022/07/10 10:58:36;;;;;;;864.10;785.97;;;19.90;2.90;;;;;;5036120;28;20508;-68
2022/07/10 11:01:32;;;;;;;871.80;783.27;;;19.90;2.90;;;;;;5031176;28;20520;-71
2022/07/10 11:04:03;;;;;;;865.03;783.87;;;19.50;2.80;;;;;;5031335;28;20430;-68
2022/07/10 11:06:45;;;;;;;838.20;757.83;;;19.60;2.70;;;;;;5031851;28;20419;-66
2022/07/10 11:09:29;;;;;;;969.33;871.33;;;19.50;2.60;;;;;;5031360;28;20453;-65
2022/07/10 11:11:58;;;;;;;1048.97;907.27;;;19.70;2.00;;;;;;5030281;28;20429;-67
2022/07/10 11:14:28;;;;;;;905.20;815.23;;;20.00;1.90;;;;;;5040538;28;20469;-68
2022/07/10 11:16:54;;;;;;;965.80;864.43;;;20.30;1.70;;;;;;5039158;28;21021;-66
2022/07/10 11:19:21;;;;;;;605.17;557.53;;;;;;;;;;5031164;28;20441;-66
2022/07/10 11:21:49;;;;;;;739.63;686.27;;;19.70;2.90;;;;;;5031669;28;20421;-66
2022/07/10 11:24:40;;;;;;;742.03;679.80;;;19.80;3.30;;;;;;5036294;28;20419;-66
2022/07/10 11:27:36;;;;;;;835.00;763.63;;;19.80;2.80;;;;;;5051538;28;20443;-66
2022/07/10 11:30:02;;;;;;;892.07;812.07;;;19.80;2.50;;;;;;5029883;28;20466;-66
2022/07/10 11:32:28;;;;;;;803.00;732.03;;;19.80;2.80;;;;;;5031666;28;20429;-66
2022/07/10 11:34:56;;;;;;;852.40;775.13;;;;;;;;;;5036030;28;20461;-66
2022/07/10 11:37:25;;;;;;;1309.70;999.90;;;;;;;;;;5049471;28;20460;-66
2022/07/10 11:39:50;;;;;;;947.77;849.80;;;20.20;1.40;;;;;;5054950;28;20444;-66
2022/07/10 11:42:16;;;;;;;779.33;713.90;;;20.30;1.50;;;;;;5055282;28;20405;-66
2022/07/10 11:44:41;;;;;;;1108.80;967.57;;;20.40;1.50;;;;;;5055442;28;20175;-67
2022/07/10 11:47:07;;;;;;;689.07;635.37;;;20.10;1.00;;;;;;5055369;28;20572;-67
2022/07/10 11:49:34;;;;;;;924.20;835.40;;;19.80;2.10;;;;;;5054856;28;20680;-66
2022/07/10 11:52:04;;;;;;;889.63;815.77;;;19.90;2.10;;;;;;5055315;28;20196;-66
2022/07/10 11:54:29;;;;;;;565.83;529.07;;;20.50;2.30;;;;;;5055346;28;20423;-66
2022/07/10 11:56:56;;;;;;;887.73;806.37;;;20.30;2.20;;;;;;5055256;28;20465;-66
2022/07/10 11:59:26;;;;;;;701.23;647.53;;;20.40;2.80;;;;;;5054832;28;20595;-66
2022/07/10 12:01:53;;;;;;;765.30;702.53;;;20.30;2.70;;;;;;5055053;28;20420;-66
2022/07/10 12:04:23;;;;;;;826.70;743.10;;;20.40;3.40;;;;;;5055091;28;20523;-66
2022/07/10 12:06:49;;;;;;;1077.43;963.33;;;20.10;2.20;;;;;;5055074;28;20420;-66
2022/07/10 12:09:16;;;;;;;637.20;579.70;;;20.20;2.50;;;;;;5054603;28;20437;-66
2022/07/10 12:11:57;;;;;;;519.80;478.43;;;20.20;2.30;;;;;;5054912;28;20933;-68
2022/07/10 12:14:23;;;;;;;976.03;875.20;;;20.40;2.00;;;;;;5051189;28;20485;-68
2022/07/10 12:16:51;;;;;;;889.17;798.50;;;20.90;1.00;;;;;;5050456;28;20472;-68
2022/07/10 12:19:30;;;;;;;810.67;741.87;;;20.70;1.90;;;;;;5049851;28;20664;-68
2022/07/10 12:21:57;;;;;;;896.03;810.73;;;20.70;1.70;;;;;;5042194;28;20438;-69
2022/07/10 12:24:23;;;;;;;684.87;624.37;;;20.90;1.40;;;;;;5047705;28;20429;-69